Latest Coastal Weather Observations for Wyndham Airport

IDD60701

Issued at 1:15 pm CST Thursday 18 September 2014 (issued every 10 minutes, with the page automatically refreshed every 10 minutes)

About coastal observations | Map of coastal stations | Coastal observations for NT | Marine services | Other Formats
Station Details ID: 001006 Name: WYNDHAM AERO Lat: -15.51 Lon: 128.15 Height: 3.8 m
Data from the previous 72 hours. | See also: Recent months for locations in Northern Territory
Date/Time
CST
Temp

°C
Wind Pressure Rain
since 9am
mm
Weather Cloud Vis
km
Sea
Height
m
Swell
Dir
 
Speed
knots
Gust
knots
hPa Trend Height
m
Period
s
Dir
18/01:00pm 35.3 WSW 5 10 1013.8 - 0.0 - - - - - - -
18/12:30pm 34.5 W 6 11 1014.6 - 0.0 - - - - - - -
18/12:00pm 33.4 W 6 10 1015.0 - 0.0 - - - - - - -
18/11:30am 32.3 WNW 6 9 1015.8 - 0.0 - - - - - - -
18/11:00am 32.5 NNW 6 10 1016.2 - 0.0 - - - - - - -
18/10:30am 31.9 NNE 7 10 1016.8 - 0.0 - - - - - - -
18/10:00am 30.7 N 8 11 1017.0 - 0.0 - - - - - - -
18/09:30am 29.6 N 8 11 1017.2 - 0.0 - - - - - - -
18/09:00am 29.0 NNE 7 9 1016.8 - 0.0 - - - - - - -
18/08:30am 27.4 ESE 10 12 1016.4 - 0.0 - - - - - - -
18/08:00am 26.3 E 4 6 1015.6 - 0.0 - - - - - - -
18/07:30am 23.1 CALM 0 0 1014.8 - 0.0 - - - - - - -
18/07:00am 22.6 CALM 0 0 1014.4 - 0.0 - - - - - - -
18/06:30am 22.8 CALM 0 0 1013.9 - 0.0 - - - - - - -
18/06:00am 23.4 S 3 4 1013.5 - 0.0 - - - - - - -
18/05:30am 24.1 SSW 2 4 1013.2 - 0.0 - - - - - - -
18/05:00am 24.2 CALM 0 5 1012.9 - 0.0 - - - - - - -
18/04:30am 23.5 W 4 5 1012.7 - 0.0 - - - - - - -
18/04:00am 23.8 W 3 4 1012.6 - 0.0 - - - - - - -
18/03:30am 24.0 W 5 5 1012.6 - 0.0 - - - - - - -
18/03:00am 24.3 NW 3 4 1012.7 - 0.0 - - - - - - -
18/02:30am 23.7 NW 3 4 1012.8 - 0.0 - - - - - - -
18/02:00am 23.3 WNW 3 4 1013.0 - 0.0 - - - - - - -
18/01:30am 24.3 SW 4 6 1013.2 - 0.0 - - - - - - -
18/01:00am 24.1 CALM 0 0 1013.5 - 0.0 - - - - - - -
18/12:30am 24.4 CALM 0 1 1013.7 - 0.0 - - - - - - -
18/12:00am 24.6 NE 5 6 1013.7 - 0.0 - - - - - - -
 
Date/Time
CST
Temp

°C
Wind Pressure Rain
since 9am
mm
Weather Cloud Vis
km
Sea
Height
m
Swell
Dir
 
Speed
knots
Gust
knots
hPa Trend Height
m
Period
s
Dir
17/11:30pm 25.7 ESE 7 8 1013.7 - 0.0 - - - - - - -
17/11:00pm 26.4 SE 8 9 1013.5 - 0.0 - - - - - - -
17/10:30pm 27.9 SE 9 11 1013.4 - 0.0 - - - - - - -
17/10:00pm 27.9 SE 6 8 1013.4 - 0.0 - - - - - - -
17/09:30pm 29.2 W 4 6 1013.1 - 0.0 - - - - - - -
17/09:00pm 29.1 SSE 5 10 1012.9 - 0.0 - - - - - - -
17/08:30pm 30.1 N 11 16 1012.3 - 0.0 - - - - - - -
17/08:00pm 30.1 N 15 21 1012.0 - 0.0 - - - - - - -
17/07:30pm 30.4 N 15 19 1011.6 - 0.0 - - - - - - -
17/07:00pm 32.0 N 13 18 1011.2 - 0.0 - - - - - - -
17/06:30pm 33.9 N 12 15 1010.7 - 0.0 - - - - - - -
17/06:00pm 34.8 N 11 14 1010.4 - 0.0 - - - - - - -
17/05:30pm 35.9 NNW 10 14 1010.2 - 0.0 - - - - - - -
17/05:00pm 36.2 NNW 11 14 1010.2 - 0.0 - - - - - - -
17/04:30pm 36.9 N 8 11 1010.1 - 0.0 - - - - - - -
17/04:00pm 36.5 NNW 7 12 1010.2 - 0.0 - - - - - - -
17/03:30pm 36.6 W 5 8 1010.5 - 0.0 - - - - - - -
17/03:00pm 36.4 NNW 7 10 1010.8 - 0.0 - - - - - - -
17/02:30pm 36.0 NNW 5 9 1011.2 - 0.0 - - - - - - -
17/02:00pm 35.5 W 6 10 1011.8 - 0.0 - - - - - - -
17/01:30pm 34.4 W 9 12 1012.4 - 0.0 - - - - - - -
17/01:00pm 34.2 W 9 14 1012.9 - 0.0 - - - - - - -
17/12:30pm 33.8 WNW 10 13 1013.6 - 0.0 - - - - - - -
17/12:00pm 33.6 NNW 5 9 1014.3 - 0.0 - - - - - - -
17/11:30am 32.6 W 3 6 1014.8 - 0.0 - - - - - - -
17/11:00am 31.4 NNW 5 9 1015.4 - 0.0 - - - - - - -
17/10:30am 30.5 N 4 7 1015.7 - 0.0 - - - - - - -
17/10:00am 30.0 ENE 6 9 1015.7 - 0.0 - - - - - - -
17/09:30am 29.0 ENE 4 8 1015.5 - 0.0 - - - - - - -
17/09:00am 28.1 ENE 7 10 1015.3 - 0.0 - - - - - - -
17/08:30am 26.8 E 6 10 1014.7 - 0.0 - - - - - - -
17/08:00am 24.9 E 5 9 1014.4 - 0.0 - - - - - - -
17/07:30am 21.7 CALM 0 2 1013.3 - 0.0 - - - - - - -
17/07:00am 21.6 WSW 4 5 1012.9 - 0.0 - - - - - - -
17/06:30am 21.7 NNW 5 6 1012.4 - 0.0 - - - - - - -
17/06:00am 21.8 WNW 2 4 1012.2 - 0.0 - - - - - - -
17/05:30am 21.8 W 4 4 1012.0 - 0.0 - - - - - - -
17/05:00am 21.9 W 4 5 1011.7 - 0.0 - - - - - - -
17/04:30am 21.7 NW 6 6 1011.3 - 0.0 - - - - - - -
17/04:00am 20.9 NW 4 5 1011.2 - 0.0 - - - - - - -
17/03:30am 21.1 NNW 5 6 1011.2 - 0.0 - - - - - - -
17/03:00am 22.7 WNW 3 4 1011.3 - 0.0 - - - - - - -
17/02:30am 21.8 WNW 2 4 1011.6 - 0.0 - - - - - - -
17/02:00am 21.0 W 3 4 1011.5 - 0.0 - - - - - - -
17/01:30am 21.5 W 3 3 1011.7 - 0.0 - - - - - - -
17/01:00am 21.3 W 3 4 1012.0 - 0.0 - - - - - - -
17/12:30am 21.5 NW 1 4 1012.2 - 0.0 - - - - - - -
17/12:00am 23.2 CALM 0 0 1012.4 - 0.0 - - - - - - -
 
Date/Time
CST
Temp

°C
Wind Pressure Rain
since 9am
mm
Weather Cloud Vis
km
Sea
Height
m
Swell
Dir
 
Speed
knots
Gust
knots
hPa Trend Height
m
Period
s
Dir
16/11:30pm 21.9 SW 4 5 1012.3 - 0.0 - - - - - - -
16/11:00pm 23.9 CALM 0 0 1012.5 - 0.0 - - - - - - -
16/10:30pm 25.2 E 4 5 1012.5 - 0.0 - - - - - - -
16/10:00pm 24.9 ENE 3 5 1012.4 - 0.0 - - - - - - -
16/09:30pm 26.6 W 6 9 1012.2 - 0.0 - - - - - - -
16/09:00pm 28.1 NNW 6 11 1012.0 - 0.0 - - - - - - -
16/08:30pm 28.0 E 5 8 1011.6 - 0.0 - - - - - - -
16/08:00pm 28.2 N 10 15 1011.2 - 0.0 - - - - - - -
16/07:30pm 28.5 N 11 15 1010.7 - 0.0 - - - - - - -
16/07:00pm 29.2 N 15 21 1010.2 - 0.0 - - - - - - -
16/06:30pm 30.2 N 16 22 1009.8 - 0.0 - - - - - - -
16/06:00pm 31.9 N 14 18 1009.6 - 0.0 - - - - - - -
16/05:30pm 33.7 N 11 16 1009.4 - 0.0 - - - - - - -
16/05:00pm 34.2 N 12 16 1009.2 - 0.0 - - - - - - -
16/04:30pm 34.2 N 12 17 1009.1 - 0.0 - - - - - - -
16/04:00pm 34.9 N 12 17 1009.1 - 0.0 - - - - - - -
16/03:30pm 35.9 NNE 6 20 1009.3 - 0.0 - - - - - - -
16/03:00pm 35.7 N 7 14 1009.6 - 0.0 - - - - - - -
16/02:30pm 35.6 N 9 14 1010.1 - 0.0 - - - - - - -
16/02:00pm 35.3 N 7 12 1010.5 - 0.0 - - - - - - -
16/01:30pm 35.1 NNW 10 15 1010.9 - 0.0 - - - - - - -
16/01:00pm 35.1 NNE 8 13 1011.5 - 0.0 - - - - - - -
16/12:30pm 35.1 NE 8 13 1011.9 - 0.0 - - - - - - -
16/12:00pm 34.0 NNE 6 11 1012.1 - 0.0 - - - - - - -
16/11:30am 33.4 ENE 5 9 1012.5 - 0.0 - - - - - - -
16/11:00am 31.5 W 4 6 1013.0 - 0.0 - - - - - - -
16/10:30am 29.7 SW 2 5 1013.1 - 0.0 - - - - - - -
16/10:00am 28.5 SW 3 5 1013.0 - 0.0 - - - - - - -
16/09:30am 26.5 WSW 4 6 1013.0 - 0.0 - - - - - - -
16/09:00am 25.3 W 3 4 1012.8 - 0.0 - - - - - - -
16/08:30am 23.7 CALM 0 0 1012.7 - 0.0 - - - - - - -
16/08:00am 20.6 CALM 0 0 1012.6 - 0.0 - - - - - - -
16/07:30am 17.6 ESE 2 3 1012.3 - 0.0 - - - - - - -
16/07:00am 17.4 ESE 4 5 1012.1 - 0.0 - - - - - - -
16/06:30am 17.8 ESE 3 4 1011.8 - 0.0 - - - - - - -
16/06:00am 18.2 ENE 5 6 1011.4 - 0.0 - - - - - - -
16/05:30am 18.4 ESE 7 8 1011.1 - 0.0 - - - - - - -
16/05:00am 18.7 CALM 0 3 1010.7 - 0.0 - - - - - - -
16/04:30am 19.3 WSW 3 4 1010.4 - 0.0 - - - - - - -
16/04:00am 20.1 WNW 3 4 1010.4 - 0.0 - - - - - - -
16/03:30am 20.4 NNW 3 3 1010.4 - 0.0 - - - - - - -
16/03:00am 20.7 WSW 3 5 1010.6 - 0.0 - - - - - - -
16/02:30am 19.4 W 1 4 1010.8 - 0.0 - - - - - - -
16/02:00am 20.6 CALM 0 0 1010.9 - 0.0 - - - - - - -
16/01:30am 20.1 WSW 6 9 1011.1 - 0.0 - - - - - - -
16/01:00am 20.0 E 3 4 1011.1 - 0.0 - - - - - - -
16/12:30am 21.3 E 7 8 1011.4 - 0.0 - - - - - - -
16/12:00am 20.6 ESE 9 9 1011.5 - 0.0 - - - - - - -
 
Date/Time
CST
Temp

°C
Wind Pressure Rain
since 9am
mm
Weather Cloud Vis
km
Sea
Height
m
Swell
Dir
 
Speed
knots
Gust
knots
hPa Trend Height
m
Period
s
Dir
15/11:30pm 21.6 CALM 0 0 1011.5 - 0.0 - - - - - - -
15/11:00pm 23.1 NNW 1 3 1011.4 - 0.0 - - - - - - -
15/10:30pm 23.7 E 3 5 1011.4 - 0.0 - - - - - - -
15/10:00pm 24.1 SSW 1 3 1011.4 - 0.0 - - - - - - -
15/09:30pm 25.5 SW 4 4 1011.3 - 0.0 - - - - - - -
15/09:00pm 27.6 SSE 5 6 1011.0 - 0.0 - - - - - - -
15/08:30pm 28.8 S 2 4 1010.6 - 0.0 - - - - - - -
15/08:00pm 30.1 N 9 13 1010.2 - 0.0 - - - - - - -
15/07:30pm 30.4 N 10 13 1009.9 - 0.0 - - - - - - -
15/07:00pm 31.0 N 11 15 1009.6 - 0.0 - - - - - - -
15/06:30pm 32.2 N 12 16 1009.2 - 0.0 - - - - - - -
15/06:00pm 33.6 N 12 17 1009.0 - 0.0 - - - - - - -
15/05:30pm 34.7 NNW 12 16 1008.8 - 0.0 - - - - - - -
15/05:00pm 36.6 SE 6 11 1008.9 - 0.0 - - - - - - -
15/04:30pm 36.7 E 5 11 1008.9 - 0.0 - - - - - - -
15/04:00pm 36.8 ESE 6 12 1009.1 - 0.0 - - - - - - -
15/03:30pm 36.6 ENE 6 10 1009.3 - 0.0 - - - - - - -
15/03:00pm 36.5 E 5 10 1009.8 - 0.0 - - - - - - -

Other Formats:

Comma delimited format used in spreadsheet applications
http://www.bom.gov.au/fwo/IDD60701/IDD60701.95214.axf

JavaScript Object Notation format (JSON) in row-major order
http://www.bom.gov.au/fwo/IDD60701/IDD60701.95214.json